sensor_id;sensor_type;location;lat;lon;timestamp;temperature;humidity
8105;DHT22;4095;48.942;9.104;2024-03-02T00:00:42;8.70;99.90
8105;DHT22;4095;48.942;9.104;2024-03-02T00:03:07;8.70;99.90
8105;DHT22;4095;48.942;9.104;2024-03-02T00:05:35;8.70;99.90
8105;DHT22;4095;48.942;9.104;2024-03-02T00:08:00;8.70;99.90
8105;DHT22;4095;48.942;9.104;2024-03-02T00:10:45;8.70;99.90
8105;DHT22;4095;48.942;9.104;2024-03-02T00:13:12;8.80;99.90
8105;DHT22;4095;48.942;9.104;2024-03-02T00:16:15;8.70;99.90
8105;DHT22;4095;48.942;9.104;2024-03-02T00:18:35;8.80;99.90
8105;DHT22;4095;48.942;9.104;2024-03-02T00:21:01;8.80;99.90
8105;DHT22;4095;48.942;9.104;2024-03-02T00:23:30;8.80;99.90
8105;DHT22;4095;48.942;9.104;2024-03-02T00:25:56;8.80;99.90
8105;DHT22;4095;48.942;9.104;2024-03-02T00:28:27;8.80;99.90
8105;DHT22;4095;48.942;9.104;2024-03-02T00:33:34;8.80;99.90
8105;DHT22;4095;48.942;9.104;2024-03-02T00:36:01;8.80;99.90
8105;DHT22;4095;48.942;9.104;2024-03-02T00:38:29;8.80;99.90
8105;DHT22;4095;48.942;9.104;2024-03-02T00:40:56;8.80;99.90
8105;DHT22;4095;48.942;9.104;2024-03-02T00:46:28;8.80;99.90
8105;DHT22;4095;48.942;9.104;2024-03-02T00:48:59;8.80;99.90
8105;DHT22;4095;48.942;9.104;2024-03-02T00:51:28;8.80;99.90
8105;DHT22;4095;48.942;9.104;2024-03-02T00:53:57;8.80;99.90
8105;DHT22;4095;48.942;9.104;2024-03-02T00:56:24;8.90;99.90
8105;DHT22;4095;48.942;9.104;2024-03-02T00:58:50;8.90;99.90
8105;DHT22;4095;48.942;9.104;2024-03-02T01:01:17;8.80;99.90
8105;DHT22;4095;48.942;9.104;2024-03-02T01:03:42;8.80;99.90
8105;DHT22;4095;48.942;9.104;2024-03-02T01:06:09;8.80;99.90
8105;DHT22;4095;48.942;9.104;2024-03-02T01:08:35;8.80;99.90
8105;DHT22;4095;48.942;9.104;2024-03-02T01:11:01;8.80;99.90
8105;DHT22;4095;48.942;9.104;2024-03-02T01:13:27;8.80;99.90
8105;DHT22;4095;48.942;9.104;2024-03-02T01:15:53;8.70;99.90
8105;DHT22;4095;48.942;9.104;2024-03-02T01:18:18;8.60;99.90
8105;DHT22;4095;48.942;9.104;2024-03-02T01:20:44;8.50;99.90
8105;DHT22;4095;48.942;9.104;2024-03-02T01:23:10;8.60;99.90
8105;DHT22;4095;48.942;9.104;2024-03-02T01:25:35;8.60;99.90
8105;DHT22;4095;48.942;9.104;2024-03-02T01:28:01;8.50;99.90
8105;DHT22;4095;48.942;9.104;2024-03-02T01:30:27;8.60;99.90
8105;DHT22;4095;48.942;9.104;2024-03-02T01:32:52;8.50;99.90
8105;DHT22;4095;48.942;9.104;2024-03-02T01:35:18;8.50;99.90
8105;DHT22;4095;48.942;9.104;2024-03-02T01:37:43;8.40;99.90
8105;DHT22;4095;48.942;9.104;2024-03-02T01:40:10;8.40;99.90
8105;DHT22;4095;48.942;9.104;2024-03-02T01:42:37;8.20;99.90
8105;DHT22;4095;48.942;9.104;2024-03-02T01:45:07;8.20;99.90
8105;DHT22;4095;48.942;9.104;2024-03-02T01:47:33;8.10;99.90
8105;DHT22;4095;48.942;9.104;2024-03-02T01:49:59;8.00;99.90
8105;DHT22;4095;48.942;9.104;2024-03-02T01:52:25;7.90;99.90
8105;DHT22;4095;48.942;9.104;2024-03-02T01:54:51;7.90;99.90
8105;DHT22;4095;48.942;9.104;2024-03-02T01:57:17;7.80;99.90
8105;DHT22;4095;48.942;9.104;2024-03-02T01:59:43;7.80;99.90
8105;DHT22;4095;48.942;9.104;2024-03-02T02:02:09;7.90;99.90
8105;DHT22;4095;48.942;9.104;2024-03-02T02:04:35;7.80;99.90
8105;DHT22;4095;48.942;9.104;2024-03-02T02:07:01;7.70;99.90
8105;DHT22;4095;48.942;9.104;2024-03-02T02:09:26;7.70;99.90
8105;DHT22;4095;48.942;9.104;2024-03-02T02:11:52;7.70;99.90
8105;DHT22;4095;48.942;9.104;2024-03-02T02:14:18;7.70;99.90
8105;DHT22;4095;48.942;9.104;2024-03-02T02:16:43;7.70;99.90
8105;DHT22;4095;48.942;9.104;2024-03-02T02:19:09;7.70;99.90
8105;DHT22;4095;48.942;9.104;2024-03-02T02:21:35;7.70;99.90
8105;DHT22;4095;48.942;9.104;2024-03-02T02:24:01;7.80;99.90
8105;DHT22;4095;48.942;9.104;2024-03-02T02:26:29;7.70;99.90
8105;DHT22;4095;48.942;9.104;2024-03-02T02:28:54;7.70;99.90
8105;DHT22;4095;48.942;9.104;2024-03-02T02:31:20;7.70;99.90
8105;DHT22;4095;48.942;9.104;2024-03-02T02:33:46;7.60;99.90
8105;DHT22;4095;48.942;9.104;2024-03-02T02:36:11;7.50;99.90
8105;DHT22;4095;48.942;9.104;2024-03-02T02:38:41;7.60;99.90
8105;DHT22;4095;48.942;9.104;2024-03-02T02:41:08;7.70;99.90
8105;DHT22;4095;48.942;9.104;2024-03-02T02:43:34;7.70;99.90
8105;DHT22;4095;48.942;9.104;2024-03-02T02:45:59;7.80;99.90
8105;DHT22;4095;48.942;9.104;2024-03-02T02:48:25;7.70;99.90
8105;DHT22;4095;48.942;9.104;2024-03-02T02:50:50;7.50;99.90
8105;DHT22;4095;48.942;9.104;2024-03-02T02:53:16;7.50;99.90
8105;DHT22;4095;48.942;9.104;2024-03-02T02:55:42;7.40;99.90
8105;DHT22;4095;48.942;9.104;2024-03-02T02:58:09;7.30;99.90
8105;DHT22;4095;48.942;9.104;2024-03-02T03:00:35;7.30;99.90
8105;DHT22;4095;48.942;9.104;2024-03-02T03:03:02;7.20;99.90
8105;DHT22;4095;48.942;9.104;2024-03-02T03:05:28;7.10;99.90
8105;DHT22;4095;48.942;9.104;2024-03-02T03:07:53;7.10;99.90
8105;DHT22;4095;48.942;9.104;2024-03-02T03:10:19;7.00;99.90
8105;DHT22;4095;48.942;9.104;2024-03-02T03:12:47;6.90;99.90
8105;DHT22;4095;48.942;9.104;2024-03-02T03:15:13;6.90;99.90
8105;DHT22;4095;48.942;9.104;2024-03-02T03:17:39;6.90;99.90
8105;DHT22;4095;48.942;9.104;2024-03-02T03:20:05;7.00;99.90
8105;DHT22;4095;48.942;9.104;2024-03-02T03:22:35;6.90;99.90
8105;DHT22;4095;48.942;9.104;2024-03-02T03:25:01;6.80;99.90
8105;DHT22;4095;48.942;9.104;2024-03-02T03:27:27;6.80;99.90
8105;DHT22;4095;48.942;9.104;2024-03-02T03:29:52;6.80;99.90
8105;DHT22;4095;48.942;9.104;2024-03-02T03:32:18;6.80;99.90
8105;DHT22;4095;48.942;9.104;2024-03-02T03:34:43;6.70;99.90
8105;DHT22;4095;48.942;9.104;2024-03-02T03:37:09;6.60;99.90
8105;DHT22;4095;48.942;9.104;2024-03-02T03:39:35;6.60;99.90
8105;DHT22;4095;48.942;9.104;2024-03-02T03:42:01;6.60;99.90
8105;DHT22;4095;48.942;9.104;2024-03-02T03:44:27;6.50;99.90
8105;DHT22;4095;48.942;9.104;2024-03-02T03:46:52;6.50;99.90
8105;DHT22;4095;48.942;9.104;2024-03-02T03:49:18;6.50;99.90
8105;DHT22;4095;48.942;9.104;2024-03-02T03:51:43;6.50;99.90
8105;DHT22;4095;48.942;9.104;2024-03-02T03:54:09;6.60;99.90
8105;DHT22;4095;48.942;9.104;2024-03-02T03:56:36;6.50;99.90
8105;DHT22;4095;48.942;9.104;2024-03-02T03:59:02;6.50;99.90
8105;DHT22;4095;48.942;9.104;2024-03-02T04:01:28;6.40;99.90
8105;DHT22;4095;48.942;9.104;2024-03-02T04:03:54;6.40;99.90
8105;DHT22;4095;48.942;9.104;2024-03-02T04:06:19;6.40;99.90
8105;DHT22;4095;48.942;9.104;2024-03-02T04:08:45;6.40;99.90
8105;DHT22;4095;48.942;9.104;2024-03-02T04:11:10;6.40;99.90
8105;DHT22;4095;48.942;9.104;2024-03-02T04:13:36;6.40;99.90
8105;DHT22;4095;48.942;9.104;2024-03-02T04:16:02;6.30;99.90
8105;DHT22;4095;48.942;9.104;2024-03-02T04:18:29;6.20;99.90
8105;DHT22;4095;48.942;9.104;2024-03-02T04:20:54;6.20;99.90
8105;DHT22;4095;48.942;9.104;2024-03-02T04:23:20;6.20;99.90
8105;DHT22;4095;48.942;9.104;2024-03-02T04:25:45;6.20;99.90
8105;DHT22;4095;48.942;9.104;2024-03-02T04:28:11;6.10;99.90
8105;DHT22;4095;48.942;9.104;2024-03-02T04:30:38;6.10;99.90
8105;DHT22;4095;48.942;9.104;2024-03-02T04:33:04;6.20;99.90
8105;DHT22;4095;48.942;9.104;2024-03-02T04:35:31;6.20;99.90
8105;DHT22;4095;48.942;9.104;2024-03-02T04:37:56;6.30;99.90
8105;DHT22;4095;48.942;9.104;2024-03-02T04:40:22;6.30;99.90
8105;DHT22;4095;48.942;9.104;2024-03-02T04:42:47;6.30;99.90
8105;DHT22;4095;48.942;9.104;2024-03-02T04:45:13;6.40;99.90
8105;DHT22;4095;48.942;9.104;2024-03-02T04:47:38;6.30;99.90
8105;DHT22;4095;48.942;9.104;2024-03-02T04:50:04;6.30;99.90
8105;DHT22;4095;48.942;9.104;2024-03-02T04:52:31;6.30;99.90
8105;DHT22;4095;48.942;9.104;2024-03-02T04:54:56;6.40;99.90
8105;DHT22;4095;48.942;9.104;2024-03-02T04:57:40;6.40;99.90
8105;DHT22;4095;48.942;9.104;2024-03-02T05:00:06;6.40;99.90
8105;DHT22;4095;48.942;9.104;2024-03-02T05:02:32;6.40;99.90
8105;DHT22;4095;48.942;9.104;2024-03-02T05:04:58;6.40;99.90
8105;DHT22;4095;48.942;9.104;2024-03-02T05:07:23;6.40;99.90
8105;DHT22;4095;48.942;9.104;2024-03-02T05:09:49;6.40;99.90
8105;DHT22;4095;48.942;9.104;2024-03-02T05:12:14;6.40;99.90
8105;DHT22;4095;48.942;9.104;2024-03-02T05:14:58;6.40;99.90
8105;DHT22;4095;48.942;9.104;2024-03-02T05:17:24;6.30;99.90
8105;DHT22;4095;48.942;9.104;2024-03-02T05:19:49;6.20;99.90
8105;DHT22;4095;48.942;9.104;2024-03-02T05:22:15;6.20;99.90
8105;DHT22;4095;48.942;9.104;2024-03-02T05:24:42;6.30;99.90
8105;DHT22;4095;48.942;9.104;2024-03-02T05:27:07;6.30;99.90
8105;DHT22;4095;48.942;9.104;2024-03-02T05:29:33;6.20;99.90
8105;DHT22;4095;48.942;9.104;2024-03-02T05:31:58;6.20;99.90
8105;DHT22;4095;48.942;9.104;2024-03-02T05:34:24;6.20;99.90
8105;DHT22;4095;48.942;9.104;2024-03-02T05:36:49;6.20;99.90
8105;DHT22;4095;48.942;9.104;2024-03-02T05:39:15;6.30;99.90
8105;DHT22;4095;48.942;9.104;2024-03-02T05:41:41;6.30;99.90
8105;DHT22;4095;48.942;9.104;2024-03-02T05:44:06;6.30;99.90
8105;DHT22;4095;48.942;9.104;2024-03-02T05:46:32;6.30;99.90
8105;DHT22;4095;48.942;9.104;2024-03-02T05:48:59;6.30;99.90
8105;DHT22;4095;48.942;9.104;2024-03-02T05:51:24;6.40;99.90
8105;DHT22;4095;48.942;9.104;2024-03-02T05:53:50;6.40;99.90
8105;DHT22;4095;48.942;9.104;2024-03-02T05:56:15;6.50;99.90
8105;DHT22;4095;48.942;9.104;2024-03-02T05:58:42;6.50;99.90
8105;DHT22;4095;48.942;9.104;2024-03-02T06:01:26;6.60;99.90
8105;DHT22;4095;48.942;9.104;2024-03-02T06:03:57;6.60;99.90
8105;DHT22;4095;48.942;9.104;2024-03-02T06:06:24;6.50;99.90
8105;DHT22;4095;48.942;9.104;2024-03-02T06:08:49;6.60;99.90
8105;DHT22;4095;48.942;9.104;2024-03-02T06:11:15;6.50;99.90
8105;DHT22;4095;48.942;9.104;2024-03-02T06:13:41;6.60;99.90
8105;DHT22;4095;48.942;9.104;2024-03-02T06:16:07;6.60;99.90
8105;DHT22;4095;48.942;9.104;2024-03-02T06:18:33;6.60;99.90
8105;DHT22;4095;48.942;9.104;2024-03-02T06:20:59;6.70;99.90
8105;DHT22;4095;48.942;9.104;2024-03-02T06:23:26;6.70;99.90
8105;DHT22;4095;48.942;9.104;2024-03-02T06:25:52;6.80;99.90
8105;DHT22;4095;48.942;9.104;2024-03-02T06:28:17;6.80;99.90
8105;DHT22;4095;48.942;9.104;2024-03-02T06:30:43;6.80;99.90
8105;DHT22;4095;48.942;9.104;2024-03-02T06:33:09;6.90;99.90
8105;DHT22;4095;48.942;9.104;2024-03-02T06:35:35;6.90;99.90
8105;DHT22;4095;48.942;9.104;2024-03-02T06:38:01;6.90;99.90
8105;DHT22;4095;48.942;9.104;2024-03-02T06:40:26;7.00;99.90
8105;DHT22;4095;48.942;9.104;2024-03-02T06:42:52;6.90;99.90
8105;DHT22;4095;48.942;9.104;2024-03-02T06:45:18;7.00;99.90
8105;DHT22;4095;48.942;9.104;2024-03-02T06:47:43;7.00;99.90
8105;DHT22;4095;48.942;9.104;2024-03-02T06:50:09;7.10;99.90
8105;DHT22;4095;48.942;9.104;2024-03-02T06:52:35;7.20;99.90
8105;DHT22;4095;48.942;9.104;2024-03-02T06:55:01;7.30;99.90
8105;DHT22;4095;48.942;9.104;2024-03-02T06:57:27;7.30;99.90
8105;DHT22;4095;48.942;9.104;2024-03-02T06:59:53;7.50;99.90
8105;DHT22;4095;48.942;9.104;2024-03-02T07:02:22;7.60;99.90
8105;DHT22;4095;48.942;9.104;2024-03-02T07:04:48;7.70;99.90
8105;DHT22;4095;48.942;9.104;2024-03-02T07:07:14;7.80;99.90
8105;DHT22;4095;48.942;9.104;2024-03-02T07:09:39;7.90;99.90
8105;DHT22;4095;48.942;9.104;2024-03-02T07:12:05;8.00;99.90
8105;DHT22;4095;48.942;9.104;2024-03-02T07:14:31;8.10;99.90
8105;DHT22;4095;48.942;9.104;2024-03-02T07:17:15;8.10;99.90
8105;DHT22;4095;48.942;9.104;2024-03-02T07:19:40;8.20;99.90
8105;DHT22;4095;48.942;9.104;2024-03-02T07:22:06;8.30;99.90
8105;DHT22;4095;48.942;9.104;2024-03-02T07:24:39;8.40;99.90
8105;DHT22;4095;48.942;9.104;2024-03-02T07:27:06;8.40;99.90
8105;DHT22;4095;48.942;9.104;2024-03-02T07:29:32;8.50;99.90
8105;DHT22;4095;48.942;9.104;2024-03-02T07:31:57;8.50;99.90
8105;DHT22;4095;48.942;9.104;2024-03-02T07:34:23;8.60;99.90
8105;DHT22;4095;48.942;9.104;2024-03-02T07:36:49;8.60;99.90
8105;DHT22;4095;48.942;9.104;2024-03-02T07:39:14;8.60;99.90
8105;DHT22;4095;48.942;9.104;2024-03-02T07:41:40;8.70;99.90
8105;DHT22;4095;48.942;9.104;2024-03-02T07:44:05;8.80;99.90
8105;DHT22;4095;48.942;9.104;2024-03-02T07:46:31;8.80;99.90
8105;DHT22;4095;48.942;9.104;2024-03-02T07:48:57;8.80;99.90
8105;DHT22;4095;48.942;9.104;2024-03-02T07:51:22;8.80;99.90
8105;DHT22;4095;48.942;9.104;2024-03-02T07:53:48;8.90;99.90
8105;DHT22;4095;48.942;9.104;2024-03-02T07:56:14;9.00;99.90
8105;DHT22;4095;48.942;9.104;2024-03-02T07:58:40;9.00;99.90
8105;DHT22;4095;48.942;9.104;2024-03-02T08:01:07;9.00;99.90
8105;DHT22;4095;48.942;9.104;2024-03-02T08:03:33;9.00;99.90
8105;DHT22;4095;48.942;9.104;2024-03-02T08:05:59;9.10;99.90
8105;DHT22;4095;48.942;9.104;2024-03-02T08:08:25;9.10;99.90
8105;DHT22;4095;48.942;9.104;2024-03-02T08:10:51;9.20;99.90
8105;DHT22;4095;48.942;9.104;2024-03-02T08:13:16;9.20;99.90
8105;DHT22;4095;48.942;9.104;2024-03-02T08:15:42;9.30;99.90
8105;DHT22;4095;48.942;9.104;2024-03-02T08:18:07;9.30;99.90
8105;DHT22;4095;48.942;9.104;2024-03-02T08:20:33;9.30;99.90
8105;DHT22;4095;48.942;9.104;2024-03-02T08:22:59;9.40;99.90
8105;DHT22;4095;48.942;9.104;2024-03-02T08:25:24;9.40;99.90
8105;DHT22;4095;48.942;9.104;2024-03-02T08:27:50;9.50;99.90
8105;DHT22;4095;48.942;9.104;2024-03-02T08:30:15;9.70;99.90
8105;DHT22;4095;48.942;9.104;2024-03-02T08:32:41;9.70;99.90
8105;DHT22;4095;48.942;9.104;2024-03-02T08:35:07;9.80;99.90
8105;DHT22;4095;48.942;9.104;2024-03-02T08:37:32;10.00;99.90
8105;DHT22;4095;48.942;9.104;2024-03-02T08:39:58;10.20;99.90
8105;DHT22;4095;48.942;9.104;2024-03-02T08:42:24;10.30;99.90
8105;DHT22;4095;48.942;9.104;2024-03-02T08:44:50;10.50;99.90
8105;DHT22;4095;48.942;9.104;2024-03-02T08:47:15;10.70;99.90
8105;DHT22;4095;48.942;9.104;2024-03-02T08:49:41;10.90;99.90
8105;DHT22;4095;48.942;9.104;2024-03-02T08:52:06;11.10;99.90
8105;DHT22;4095;48.942;9.104;2024-03-02T08:54:32;11.30;99.90
8105;DHT22;4095;48.942;9.104;2024-03-02T08:56:59;11.40;99.90
8105;DHT22;4095;48.942;9.104;2024-03-02T08:59:25;11.50;99.90
8105;DHT22;4095;48.942;9.104;2024-03-02T09:01:53;11.60;99.90
8105;DHT22;4095;48.942;9.104;2024-03-02T09:04:18;11.70;99.90
8105;DHT22;4095;48.942;9.104;2024-03-02T09:06:44;11.80;99.90
8105;DHT22;4095;48.942;9.104;2024-03-02T09:09:09;12.00;99.90
8105;DHT22;4095;48.942;9.104;2024-03-02T09:11:35;12.20;99.90
8105;DHT22;4095;48.942;9.104;2024-03-02T09:14:01;12.40;99.90
8105;DHT22;4095;48.942;9.104;2024-03-02T09:16:27;12.50;99.90
8105;DHT22;4095;48.942;9.104;2024-03-02T09:18:56;12.80;99.90
8105;DHT22;4095;48.942;9.104;2024-03-02T09:21:22;13.00;99.90
8105;DHT22;4095;48.942;9.104;2024-03-02T09:23:48;13.00;99.90
8105;DHT22;4095;48.942;9.104;2024-03-02T09:26:14;12.90;99.90
8105;DHT22;4095;48.942;9.104;2024-03-02T09:28:43;12.90;99.90
8105;DHT22;4095;48.942;9.104;2024-03-02T09:31:09;13.10;99.90
8105;DHT22;4095;48.942;9.104;2024-03-02T09:33:34;13.30;99.90
8105;DHT22;4095;48.942;9.104;2024-03-02T09:36:00;13.50;99.90
8105;DHT22;4095;48.942;9.104;2024-03-02T09:38:25;13.70;99.90
8105;DHT22;4095;48.942;9.104;2024-03-02T09:40:51;13.80;99.90
8105;DHT22;4095;48.942;9.104;2024-03-02T09:43:17;13.90;99.90
8105;DHT22;4095;48.942;9.104;2024-03-02T09:45:43;14.00;99.90
8105;DHT22;4095;48.942;9.104;2024-03-02T09:48:10;14.00;99.90
8105;DHT22;4095;48.942;9.104;2024-03-02T09:50:35;14.10;99.90
8105;DHT22;4095;48.942;9.104;2024-03-02T09:53:01;14.20;99.90
8105;DHT22;4095;48.942;9.104;2024-03-02T09:55:27;14.50;99.90
8105;DHT22;4095;48.942;9.104;2024-03-02T09:57:53;14.60;99.90
8105;DHT22;4095;48.942;9.104;2024-03-02T10:00:19;14.80;99.90
8105;DHT22;4095;48.942;9.104;2024-03-02T10:02:44;15.10;99.90
8105;DHT22;4095;48.942;9.104;2024-03-02T10:05:23;15.20;99.90
8105;DHT22;4095;48.942;9.104;2024-03-02T10:08:00;15.40;99.90
8105;DHT22;4095;48.942;9.104;2024-03-02T10:10:40;15.70;99.90
8105;DHT22;4095;48.942;9.104;2024-03-02T10:13:08;15.90;99.60
8105;DHT22;4095;48.942;9.104;2024-03-02T10:15:34;16.20;99.50
8105;DHT22;4095;48.942;9.104;2024-03-02T10:18:00;16.50;98.90
8105;DHT22;4095;48.942;9.104;2024-03-02T10:20:26;16.80;99.00
8105;DHT22;4095;48.942;9.104;2024-03-02T10:22:54;17.10;99.20
8105;DHT22;4095;48.942;9.104;2024-03-02T10:25:33;17.40;97.80
8105;DHT22;4095;48.942;9.104;2024-03-02T10:28:00;17.70;97.00
8105;DHT22;4095;48.942;9.104;2024-03-02T10:30:27;17.90;97.00
8105;DHT22;4095;48.942;9.104;2024-03-02T10:32:55;18.20;96.80
8105;DHT22;4095;48.942;9.104;2024-03-02T10:35:24;18.40;96.00
8105;DHT22;4095;48.942;9.104;2024-03-02T10:37:51;18.80;96.10
8105;DHT22;4095;48.942;9.104;2024-03-02T10:40:17;19.10;95.00
8105;DHT22;4095;48.942;9.104;2024-03-02T10:42:44;19.60;95.20
8105;DHT22;4095;48.942;9.104;2024-03-02T10:45:10;20.30;94.40
8105;DHT22;4095;48.942;9.104;2024-03-02T10:47:37;21.00;94.50
8105;DHT22;4095;48.942;9.104;2024-03-02T10:50:05;21.70;93.60
8105;DHT22;4095;48.942;9.104;2024-03-02T10:52:37;22.50;93.10
8105;DHT22;4095;48.942;9.104;2024-03-02T10:55:03;23.20;91.30
8105;DHT22;4095;48.942;9.104;2024-03-02T11:00:07;24.70;86.80
8105;DHT22;4095;48.942;9.104;2024-03-02T11:02:35;25.40;86.50
8105;DHT22;4095;48.942;9.104;2024-03-02T11:05:06;26.40;82.90
8105;DHT22;4095;48.942;9.104;2024-03-02T11:07:33;27.20;79.20
8105;DHT22;4095;48.942;9.104;2024-03-02T11:10:01;27.90;77.90
8105;DHT22;4095;48.942;9.104;2024-03-02T11:12:38;28.60;76.60
8105;DHT22;4095;48.942;9.104;2024-03-02T11:15:10;29.20;74.40
8105;DHT22;4095;48.942;9.104;2024-03-02T11:17:36;29.80;71.80
8105;DHT22;4095;48.942;9.104;2024-03-02T11:20:03;29.90;70.00
8105;DHT22;4095;48.942;9.104;2024-03-02T11:22:30;30.00;68.90
8105;DHT22;4095;48.942;9.104;2024-03-02T11:24:55;29.90;69.60
8105;DHT22;4095;48.942;9.104;2024-03-02T11:33:00;30.90;67.40
8105;DHT22;4095;48.942;9.104;2024-03-02T11:35:27;31.30;64.10
8105;DHT22;4095;48.942;9.104;2024-03-02T11:37:55;31.90;66.30
8105;DHT22;4095;48.942;9.104;2024-03-02T11:40:28;32.50;66.20
8105;DHT22;4095;48.942;9.104;2024-03-02T11:42:53;32.80;65.60
8105;DHT22;4095;48.942;9.104;2024-03-02T11:45:23;33.00;62.20
8105;DHT22;4095;48.942;9.104;2024-03-02T11:47:57;33.00;61.90
8105;DHT22;4095;48.942;9.104;2024-03-02T11:50:57;33.50;62.90
8105;DHT22;4095;48.942;9.104;2024-03-02T11:53:23;33.90;61.40
8105;DHT22;4095;48.942;9.104;2024-03-02T11:55:49;33.80;60.90
8105;DHT22;4095;48.942;9.104;2024-03-02T11:58:16;33.70;60.70
8105;DHT22;4095;48.942;9.104;2024-03-02T12:00:54;33.50;59.80
8105;DHT22;4095;48.942;9.104;2024-03-02T12:03:22;33.00;60.40
8105;DHT22;4095;48.942;9.104;2024-03-02T12:05:54;32.80;60.80
8105;DHT22;4095;48.942;9.104;2024-03-02T12:08:20;32.50;60.90
8105;DHT22;4095;48.942;9.104;2024-03-02T12:11:00;32.20;61.00
8105;DHT22;4095;48.942;9.104;2024-03-02T12:13:26;31.90;61.70
8105;DHT22;4095;48.942;9.104;2024-03-02T12:15:55;31.90;61.00
8105;DHT22;4095;48.942;9.104;2024-03-02T12:18:24;31.90;59.80
8105;DHT22;4095;48.942;9.104;2024-03-02T12:20:51;31.90;59.50
8105;DHT22;4095;48.942;9.104;2024-03-02T12:23:23;31.80;59.40
8105;DHT22;4095;48.942;9.104;2024-03-02T12:25:49;32.10;60.90
8105;DHT22;4095;48.942;9.104;2024-03-02T12:28:15;32.30;61.10
8105;DHT22;4095;48.942;9.104;2024-03-02T12:30:41;32.40;60.00
8105;DHT22;4095;48.942;9.104;2024-03-02T12:33:07;32.50;60.10
8105;DHT22;4095;48.942;9.104;2024-03-02T12:35:32;32.90;59.50
8105;DHT22;4095;48.942;9.104;2024-03-02T12:37:58;33.40;58.70
8105;DHT22;4095;48.942;9.104;2024-03-02T12:40:24;33.70;56.40
8105;DHT22;4095;48.942;9.104;2024-03-02T12:42:50;33.90;55.10
8105;DHT22;4095;48.942;9.104;2024-03-02T12:45:16;33.90;55.60
8105;DHT22;4095;48.942;9.104;2024-03-02T12:47:48;34.00;56.10
8105;DHT22;4095;48.942;9.104;2024-03-02T12:50:14;34.10;54.30
8105;DHT22;4095;48.942;9.104;2024-03-02T12:52:40;34.00;54.40
8105;DHT22;4095;48.942;9.104;2024-03-02T12:55:06;33.90;53.80
8105;DHT22;4095;48.942;9.104;2024-03-02T12:57:33;34.20;55.10
8105;DHT22;4095;48.942;9.104;2024-03-02T13:00:05;34.10;54.70
8105;DHT22;4095;48.942;9.104;2024-03-02T13:02:39;34.30;55.50
8105;DHT22;4095;48.942;9.104;2024-03-02T13:05:06;34.30;53.10
8105;DHT22;4095;48.942;9.104;2024-03-02T13:07:36;34.10;54.50
8105;DHT22;4095;48.942;9.104;2024-03-02T13:10:02;33.90;53.90
8105;DHT22;4095;48.942;9.104;2024-03-02T13:12:30;33.50;52.80
8105;DHT22;4095;48.942;9.104;2024-03-02T13:14:58;32.90;53.80
8105;DHT22;4095;48.942;9.104;2024-03-02T13:17:24;32.40;54.70
8105;DHT22;4095;48.942;9.104;2024-03-02T13:19:57;32.00;55.60
8105;DHT22;4095;48.942;9.104;2024-03-02T13:22:24;31.20;56.00
8105;DHT22;4095;48.942;9.104;2024-03-02T13:24:50;30.30;57.00
8105;DHT22;4095;48.942;9.104;2024-03-02T13:27:16;29.30;57.80
8105;DHT22;4095;48.942;9.104;2024-03-02T13:29:45;28.40;57.70
8105;DHT22;4095;48.942;9.104;2024-03-02T13:32:11;27.60;61.20
8105;DHT22;4095;48.942;9.104;2024-03-02T13:34:37;27.00;61.50
8105;DHT22;4095;48.942;9.104;2024-03-02T13:37:03;26.30;62.30
8105;DHT22;4095;48.942;9.104;2024-03-02T13:39:30;25.60;63.40
8105;DHT22;4095;48.942;9.104;2024-03-02T13:42:00;25.10;64.10
8105;DHT22;4095;48.942;9.104;2024-03-02T13:44:31;24.90;64.60
8105;DHT22;4095;48.942;9.104;2024-03-02T13:46:58;24.80;64.20
8105;DHT22;4095;48.942;9.104;2024-03-02T13:49:24;24.50;62.60
8105;DHT22;4095;48.942;9.104;2024-03-02T13:51:54;24.10;63.80
8105;DHT22;4095;48.942;9.104;2024-03-02T13:54:20;24.10;65.40
8105;DHT22;4095;48.942;9.104;2024-03-02T13:56:46;24.20;65.00
8105;DHT22;4095;48.942;9.104;2024-03-02T13:59:12;24.10;64.50
8105;DHT22;4095;48.942;9.104;2024-03-02T14:01:37;23.80;63.70
8105;DHT22;4095;48.942;9.104;2024-03-02T14:04:03;23.60;64.90
8105;DHT22;4095;48.942;9.104;2024-03-02T14:06:29;23.40;65.60
8105;DHT22;4095;48.942;9.104;2024-03-02T14:08:54;23.10;65.30
8105;DHT22;4095;48.942;9.104;2024-03-02T14:11:20;23.00;65.80
8105;DHT22;4095;48.942;9.104;2024-03-02T14:13:46;23.10;66.60
8105;DHT22;4095;48.942;9.104;2024-03-02T14:16:19;23.40;65.70
8105;DHT22;4095;48.942;9.104;2024-03-02T14:18:45;23.70;65.40
8105;DHT22;4095;48.942;9.104;2024-03-02T14:21:10;23.90;65.20
8105;DHT22;4095;48.942;9.104;2024-03-02T14:23:36;23.80;64.50
8105;DHT22;4095;48.942;9.104;2024-03-02T14:26:01;23.60;65.30
8105;DHT22;4095;48.942;9.104;2024-03-02T14:28:27;23.40;65.80
8105;DHT22;4095;48.942;9.104;2024-03-02T14:30:53;23.10;66.00
8105;DHT22;4095;48.942;9.104;2024-03-02T14:33:19;23.00;64.50
8105;DHT22;4095;48.942;9.104;2024-03-02T14:35:45;22.90;66.50
8105;DHT22;4095;48.942;9.104;2024-03-02T14:38:11;22.90;68.00
8105;DHT22;4095;48.942;9.104;2024-03-02T14:40:37;22.80;67.00
8105;DHT22;4095;48.942;9.104;2024-03-02T14:43:03;22.60;65.30
8105;DHT22;4095;48.942;9.104;2024-03-02T14:45:29;22.40;67.10
8105;DHT22;4095;48.942;9.104;2024-03-02T14:47:54;22.20;65.10
8105;DHT22;4095;48.942;9.104;2024-03-02T14:50:21;22.00;66.70
8105;DHT22;4095;48.942;9.104;2024-03-02T14:52:46;21.90;68.60
8105;DHT22;4095;48.942;9.104;2024-03-02T14:55:12;21.70;69.10
8105;DHT22;4095;48.942;9.104;2024-03-02T14:57:37;21.50;69.70
8105;DHT22;4095;48.942;9.104;2024-03-02T15:00:03;21.40;71.00
8105;DHT22;4095;48.942;9.104;2024-03-02T15:02:33;21.40;70.30
8105;DHT22;4095;48.942;9.104;2024-03-02T15:04:58;21.50;71.50
8105;DHT22;4095;48.942;9.104;2024-03-02T15:07:24;21.60;71.20
8105;DHT22;4095;48.942;9.104;2024-03-02T15:09:50;21.90;70.70
8105;DHT22;4095;48.942;9.104;2024-03-02T15:12:15;22.30;70.00
8105;DHT22;4095;48.942;9.104;2024-03-02T15:14:43;22.50;71.20
8105;DHT22;4095;48.942;9.104;2024-03-02T15:17:15;22.50;70.90
8105;DHT22;4095;48.942;9.104;2024-03-02T15:19:45;22.40;68.30
8105;DHT22;4095;48.942;9.104;2024-03-02T15:22:11;22.20;68.80
8105;DHT22;4095;48.942;9.104;2024-03-02T15:24:37;21.90;70.60
8105;DHT22;4095;48.942;9.104;2024-03-02T15:27:04;21.60;71.80
8105;DHT22;4095;48.942;9.104;2024-03-02T15:29:31;21.30;72.10
8105;DHT22;4095;48.942;9.104;2024-03-02T15:32:00;20.90;72.20
8105;DHT22;4095;48.942;9.104;2024-03-02T15:34:26;20.70;73.50
8105;DHT22;4095;48.942;9.104;2024-03-02T15:36:52;20.40;74.40
8105;DHT22;4095;48.942;9.104;2024-03-02T15:39:18;20.30;73.80
8105;DHT22;4095;48.942;9.104;2024-03-02T15:41:44;20.10;74.00
8105;DHT22;4095;48.942;9.104;2024-03-02T15:44:10;19.90;74.90
8105;DHT22;4095;48.942;9.104;2024-03-02T15:46:36;19.70;76.30
8105;DHT22;4095;48.942;9.104;2024-03-02T15:49:01;19.50;75.40
8105;DHT22;4095;48.942;9.104;2024-03-02T15:51:27;19.40;75.20
8105;DHT22;4095;48.942;9.104;2024-03-02T15:53:53;19.20;75.70
8105;DHT22;4095;48.942;9.104;2024-03-02T15:56:18;19.00;76.80
8105;DHT22;4095;48.942;9.104;2024-03-02T15:58:44;19.00;77.80
8105;DHT22;4095;48.942;9.104;2024-03-02T16:01:11;18.80;76.80
8105;DHT22;4095;48.942;9.104;2024-03-02T16:03:37;18.80;76.60
8105;DHT22;4095;48.942;9.104;2024-03-02T16:06:03;18.70;77.00
8105;DHT22;4095;48.942;9.104;2024-03-02T16:08:29;18.60;77.90
8105;DHT22;4095;48.942;9.104;2024-03-02T16:10:54;18.60;78.10
8105;DHT22;4095;48.942;9.104;2024-03-02T16:13:20;18.50;78.80
8105;DHT22;4095;48.942;9.104;2024-03-02T16:15:46;18.50;79.00
8105;DHT22;4095;48.942;9.104;2024-03-02T16:18:11;18.40;79.40
8105;DHT22;4095;48.942;9.104;2024-03-02T16:20:37;18.40;80.70